sensor_id;sensor_type;location;lat;lon;timestamp;P1;durP1;ratioP1;P2;durP2;ratioP2
38785;SDS011;24535;45.508;12.252;2023-12-20T00:00:38;83.55;;;68.35;;
38785;SDS011;24535;45.508;12.252;2023-12-20T00:03:04;82.18;;;69.72;;
38785;SDS011;24535;45.508;12.252;2023-12-20T00:05:30;84.85;;;72.15;;
38785;SDS011;24535;45.508;12.252;2023-12-20T00:07:57;92.07;;;72.45;;
38785;SDS011;24535;45.508;12.252;2023-12-20T00:10:23;82.63;;;68.97;;
38785;SDS011;24535;45.508;12.252;2023-12-20T00:12:48;82.97;;;71.50;;
38785;SDS011;24535;45.508;12.252;2023-12-20T00:15:13;79.43;;;70.63;;
38785;SDS011;24535;45.508;12.252;2023-12-20T00:17:39;83.78;;;71.88;;
38785;SDS011;24535;45.508;12.252;2023-12-20T00:20:07;81.03;;;71.95;;
38785;SDS011;24535;45.508;12.252;2023-12-20T00:22:32;84.43;;;72.20;;
38785;SDS011;24535;45.508;12.252;2023-12-20T00:24:58;85.93;;;73.00;;
38785;SDS011;24535;45.508;12.252;2023-12-20T00:27:23;85.22;;;72.55;;
38785;SDS011;24535;45.508;12.252;2023-12-20T00:29:49;83.78;;;71.53;;
38785;SDS011;24535;45.508;12.252;2023-12-20T00:32:15;77.68;;;68.35;;
38785;SDS011;24535;45.508;12.252;2023-12-20T00:34:41;86.13;;;72.35;;
38785;SDS011;24535;45.508;12.252;2023-12-20T00:37:07;84.32;;;72.80;;
38785;SDS011;24535;45.508;12.252;2023-12-20T00:39:33;85.03;;;71.47;;
38785;SDS011;24535;45.508;12.252;2023-12-20T00:41:58;84.03;;;74.63;;
38785;SDS011;24535;45.508;12.252;2023-12-20T00:44:23;84.95;;;70.85;;
38785;SDS011;24535;45.508;12.252;2023-12-20T00:46:49;82.78;;;72.60;;
38785;SDS011;24535;45.508;12.252;2023-12-20T00:49:14;83.00;;;72.97;;
38785;SDS011;24535;45.508;12.252;2023-12-20T00:51:40;86.28;;;75.28;;
38785;SDS011;24535;45.508;12.252;2023-12-20T00:54:05;84.72;;;73.57;;
38785;SDS011;24535;45.508;12.252;2023-12-20T00:56:30;89.65;;;72.95;;
38785;SDS011;24535;45.508;12.252;2023-12-20T00:58:56;85.18;;;72.72;;
38785;SDS011;24535;45.508;12.252;2023-12-20T01:01:21;82.70;;;68.53;;
38785;SDS011;24535;45.508;12.252;2023-12-20T01:03:47;87.65;;;71.57;;
38785;SDS011;24535;45.508;12.252;2023-12-20T01:06:16;82.88;;;69.95;;
38785;SDS011;24535;45.508;12.252;2023-12-20T01:08:42;84.28;;;71.47;;
38785;SDS011;24535;45.508;12.252;2023-12-20T01:11:07;81.13;;;69.30;;
38785;SDS011;24535;45.508;12.252;2023-12-20T01:13:33;83.65;;;73.60;;
38785;SDS011;24535;45.508;12.252;2023-12-20T01:15:58;83.05;;;73.75;;
38785;SDS011;24535;45.508;12.252;2023-12-20T01:18:24;84.35;;;73.72;;
38785;SDS011;24535;45.508;12.252;2023-12-20T01:20:49;85.20;;;71.85;;
38785;SDS011;24535;45.508;12.252;2023-12-20T01:23:14;83.05;;;73.45;;
38785;SDS011;24535;45.508;12.252;2023-12-20T01:25:40;82.72;;;72.38;;
38785;SDS011;24535;45.508;12.252;2023-12-20T01:28:05;81.68;;;72.13;;
38785;SDS011;24535;45.508;12.252;2023-12-20T01:30:31;85.90;;;75.30;;
38785;SDS011;24535;45.508;12.252;2023-12-20T01:32:56;83.32;;;73.90;;
38785;SDS011;24535;45.508;12.252;2023-12-20T01:35:22;91.93;;;75.53;;
38785;SDS011;24535;45.508;12.252;2023-12-20T01:37:47;86.45;;;75.68;;
38785;SDS011;24535;45.508;12.252;2023-12-20T01:40:12;86.13;;;76.10;;
38785;SDS011;24535;45.508;12.252;2023-12-20T01:42:38;85.60;;;76.07;;
38785;SDS011;24535;45.508;12.252;2023-12-20T01:45:03;91.35;;;79.50;;
38785;SDS011;24535;45.508;12.252;2023-12-20T01:47:29;92.15;;;77.32;;
38785;SDS011;24535;45.508;12.252;2023-12-20T01:49:55;86.38;;;75.03;;
38785;SDS011;24535;45.508;12.252;2023-12-20T01:52:22;89.25;;;75.43;;
38785;SDS011;24535;45.508;12.252;2023-12-20T01:54:48;86.93;;;74.95;;
38785;SDS011;24535;45.508;12.252;2023-12-20T01:57:14;83.78;;;74.22;;
38785;SDS011;24535;45.508;12.252;2023-12-20T01:59:39;87.97;;;76.13;;
38785;SDS011;24535;45.508;12.252;2023-12-20T02:02:05;86.50;;;74.55;;
38785;SDS011;24535;45.508;12.252;2023-12-20T02:04:33;87.13;;;75.40;;
38785;SDS011;24535;45.508;12.252;2023-12-20T02:06:58;88.30;;;75.68;;
38785;SDS011;24535;45.508;12.252;2023-12-20T02:09:24;86.00;;;75.05;;
38785;SDS011;24535;45.508;12.252;2023-12-20T02:11:49;90.32;;;76.38;;
38785;SDS011;24535;45.508;12.252;2023-12-20T02:14:15;83.65;;;73.80;;
38785;SDS011;24535;45.508;12.252;2023-12-20T02:16:41;86.90;;;75.82;;
38785;SDS011;24535;45.508;12.252;2023-12-20T02:19:08;87.38;;;76.15;;
38785;SDS011;24535;45.508;12.252;2023-12-20T02:21:40;94.47;;;74.88;;
38785;SDS011;24535;45.508;12.252;2023-12-20T02:24:05;86.43;;;75.13;;
38785;SDS011;24535;45.508;12.252;2023-12-20T02:26:32;89.15;;;74.60;;
38785;SDS011;24535;45.508;12.252;2023-12-20T02:28:58;84.20;;;74.25;;
38785;SDS011;24535;45.508;12.252;2023-12-20T02:31:24;83.53;;;73.65;;
38785;SDS011;24535;45.508;12.252;2023-12-20T02:33:49;87.57;;;73.53;;
38785;SDS011;24535;45.508;12.252;2023-12-20T02:36:15;82.22;;;73.20;;
38785;SDS011;24535;45.508;12.252;2023-12-20T02:38:41;91.07;;;72.43;;
38785;SDS011;24535;45.508;12.252;2023-12-20T02:41:06;89.20;;;75.72;;
38785;SDS011;24535;45.508;12.252;2023-12-20T02:43:31;85.45;;;74.32;;
38785;SDS011;24535;45.508;12.252;2023-12-20T02:45:57;81.97;;;73.05;;
38785;SDS011;24535;45.508;12.252;2023-12-20T02:48:23;86.00;;;75.30;;
38785;SDS011;24535;45.508;12.252;2023-12-20T02:50:48;84.53;;;74.07;;
38785;SDS011;24535;45.508;12.252;2023-12-20T02:53:14;86.65;;;74.85;;
38785;SDS011;24535;45.508;12.252;2023-12-20T02:55:40;83.95;;;73.82;;
38785;SDS011;24535;45.508;12.252;2023-12-20T02:58:05;86.85;;;74.63;;
38785;SDS011;24535;45.508;12.252;2023-12-20T03:00:30;86.20;;;75.72;;
38785;SDS011;24535;45.508;12.252;2023-12-20T03:02:56;88.05;;;76.93;;
38785;SDS011;24535;45.508;12.252;2023-12-20T03:05:21;88.18;;;76.82;;
38785;SDS011;24535;45.508;12.252;2023-12-20T03:07:47;83.95;;;74.82;;
38785;SDS011;24535;45.508;12.252;2023-12-20T03:10:12;86.53;;;76.50;;
38785;SDS011;24535;45.508;12.252;2023-12-20T03:12:38;86.63;;;77.20;;
38785;SDS011;24535;45.508;12.252;2023-12-20T03:15:03;83.93;;;74.38;;
38785;SDS011;24535;45.508;12.252;2023-12-20T03:17:29;85.88;;;76.15;;
38785;SDS011;24535;45.508;12.252;2023-12-20T03:19:54;85.25;;;76.10;;
38785;SDS011;24535;45.508;12.252;2023-12-20T03:22:20;87.50;;;76.88;;
38785;SDS011;24535;45.508;12.252;2023-12-20T03:24:45;87.10;;;75.05;;
38785;SDS011;24535;45.508;12.252;2023-12-20T03:27:14;83.35;;;74.43;;
38785;SDS011;24535;45.508;12.252;2023-12-20T03:29:39;89.45;;;78.40;;
38785;SDS011;24535;45.508;12.252;2023-12-20T03:32:05;85.90;;;76.63;;
38785;SDS011;24535;45.508;12.252;2023-12-20T03:34:30;89.18;;;76.25;;
38785;SDS011;24535;45.508;12.252;2023-12-20T03:36:56;83.30;;;73.00;;
38785;SDS011;24535;45.508;12.252;2023-12-20T03:39:21;85.88;;;76.45;;
38785;SDS011;24535;45.508;12.252;2023-12-20T03:41:47;82.13;;;73.18;;
38785;SDS011;24535;45.508;12.252;2023-12-20T03:44:12;83.72;;;72.35;;
38785;SDS011;24535;45.508;12.252;2023-12-20T03:46:37;82.30;;;73.22;;
38785;SDS011;24535;45.508;12.252;2023-12-20T03:49:03;88.03;;;73.15;;
38785;SDS011;24535;45.508;12.252;2023-12-20T03:51:28;80.28;;;71.40;;
38785;SDS011;24535;45.508;12.252;2023-12-20T03:53:54;78.70;;;69.03;;
38785;SDS011;24535;45.508;12.252;2023-12-20T03:56:22;81.07;;;71.30;;
38785;SDS011;24535;45.508;12.252;2023-12-20T03:58:49;82.32;;;71.32;;
38785;SDS011;24535;45.508;12.252;2023-12-20T04:01:14;79.80;;;70.97;;
38785;SDS011;24535;45.508;12.252;2023-12-20T04:03:40;78.15;;;65.65;;
38785;SDS011;24535;45.508;12.252;2023-12-20T04:06:05;79.65;;;63.90;;
38785;SDS011;24535;45.508;12.252;2023-12-20T04:08:31;78.97;;;66.60;;
38785;SDS011;24535;45.508;12.252;2023-12-20T04:10:56;73.47;;;64.85;;
38785;SDS011;24535;45.508;12.252;2023-12-20T04:13:22;72.60;;;63.05;;
38785;SDS011;24535;45.508;12.252;2023-12-20T04:15:47;71.63;;;63.00;;
38785;SDS011;24535;45.508;12.252;2023-12-20T04:18:15;72.75;;;63.10;;
38785;SDS011;24535;45.508;12.252;2023-12-20T04:20:40;73.00;;;62.83;;
38785;SDS011;24535;45.508;12.252;2023-12-20T04:23:06;72.63;;;62.97;;
38785;SDS011;24535;45.508;12.252;2023-12-20T04:25:31;72.15;;;63.55;;
38785;SDS011;24535;45.508;12.252;2023-12-20T04:27:56;68.50;;;61.00;;
38785;SDS011;24535;45.508;12.252;2023-12-20T04:30:22;73.25;;;62.05;;
38785;SDS011;24535;45.508;12.252;2023-12-20T04:32:47;70.22;;;61.25;;
38785;SDS011;24535;45.508;12.252;2023-12-20T04:35:13;68.18;;;59.17;;
38785;SDS011;24535;45.508;12.252;2023-12-20T04:37:38;70.53;;;61.47;;
38785;SDS011;24535;45.508;12.252;2023-12-20T04:40:04;70.35;;;62.55;;
38785;SDS011;24535;45.508;12.252;2023-12-20T04:42:30;70.68;;;61.08;;
38785;SDS011;24535;45.508;12.252;2023-12-20T04:44:56;67.13;;;60.03;;
38785;SDS011;24535;45.508;12.252;2023-12-20T04:47:21;74.45;;;61.63;;
38785;SDS011;24535;45.508;12.252;2023-12-20T04:49:47;67.20;;;58.53;;
38785;SDS011;24535;45.508;12.252;2023-12-20T04:52:12;69.47;;;60.15;;
38785;SDS011;24535;45.508;12.252;2023-12-20T04:54:38;65.38;;;58.25;;
38785;SDS011;24535;45.508;12.252;2023-12-20T04:57:03;68.07;;;58.30;;
38785;SDS011;24535;45.508;12.252;2023-12-20T04:59:29;62.60;;;55.13;;
38785;SDS011;24535;45.508;12.252;2023-12-20T05:01:54;64.05;;;56.60;;
38785;SDS011;24535;45.508;12.252;2023-12-20T05:04:20;60.75;;;54.08;;
38785;SDS011;24535;45.508;12.252;2023-12-20T05:06:45;64.72;;;54.65;;
38785;SDS011;24535;45.508;12.252;2023-12-20T05:09:11;61.22;;;54.55;;
38785;SDS011;24535;45.508;12.252;2023-12-20T05:11:36;64.60;;;52.83;;
38785;SDS011;24535;45.508;12.252;2023-12-20T05:14:01;59.78;;;53.17;;
38785;SDS011;24535;45.508;12.252;2023-12-20T05:16:27;62.75;;;52.67;;
38785;SDS011;24535;45.508;12.252;2023-12-20T05:18:52;63.92;;;52.35;;
38785;SDS011;24535;45.508;12.252;2023-12-20T05:21:18;57.97;;;51.83;;
38785;SDS011;24535;45.508;12.252;2023-12-20T05:23:43;58.28;;;50.35;;
38785;SDS011;24535;45.508;12.252;2023-12-20T05:26:09;58.88;;;51.33;;
38785;SDS011;24535;45.508;12.252;2023-12-20T05:28:34;57.13;;;48.40;;
38785;SDS011;24535;45.508;12.252;2023-12-20T05:31:00;55.05;;;48.13;;
38785;SDS011;24535;45.508;12.252;2023-12-20T05:33:25;54.50;;;47.33;;
38785;SDS011;24535;45.508;12.252;2023-12-20T05:35:51;59.50;;;50.08;;
38785;SDS011;24535;45.508;12.252;2023-12-20T05:38:16;55.20;;;48.38;;
38785;SDS011;24535;45.508;12.252;2023-12-20T05:40:42;54.97;;;48.80;;
38785;SDS011;24535;45.508;12.252;2023-12-20T05:43:07;54.47;;;46.75;;
38785;SDS011;24535;45.508;12.252;2023-12-20T05:45:33;52.30;;;46.08;;
38785;SDS011;24535;45.508;12.252;2023-12-20T05:47:58;52.20;;;45.65;;
38785;SDS011;24535;45.508;12.252;2023-12-20T05:50:24;50.95;;;45.15;;
38785;SDS011;24535;45.508;12.252;2023-12-20T05:52:49;51.67;;;45.05;;
38785;SDS011;24535;45.508;12.252;2023-12-20T05:55:15;50.25;;;41.70;;
38785;SDS011;24535;45.508;12.252;2023-12-20T05:57:40;48.65;;;42.03;;
38785;SDS011;24535;45.508;12.252;2023-12-20T06:00:08;46.15;;;40.20;;
38785;SDS011;24535;45.508;12.252;2023-12-20T06:02:34;46.90;;;39.95;;
38785;SDS011;24535;45.508;12.252;2023-12-20T06:05:01;43.50;;;37.53;;
38785;SDS011;24535;45.508;12.252;2023-12-20T06:07:28;42.08;;;37.40;;
38785;SDS011;24535;45.508;12.252;2023-12-20T06:09:54;45.65;;;37.58;;
38785;SDS011;24535;45.508;12.252;2023-12-20T06:12:20;44.20;;;37.38;;
38785;SDS011;24535;45.508;12.252;2023-12-20T06:14:45;43.50;;;35.70;;
38785;SDS011;24535;45.508;12.252;2023-12-20T06:17:11;45.58;;;37.17;;
38785;SDS011;24535;45.508;12.252;2023-12-20T06:19:36;43.42;;;36.03;;
38785;SDS011;24535;45.508;12.252;2023-12-20T06:22:02;45.70;;;36.65;;
38785;SDS011;24535;45.508;12.252;2023-12-20T06:24:27;42.63;;;35.67;;
38785;SDS011;24535;45.508;12.252;2023-12-20T06:26:53;41.78;;;34.67;;
38785;SDS011;24535;45.508;12.252;2023-12-20T06:29:20;45.58;;;37.53;;
38785;SDS011;24535;45.508;12.252;2023-12-20T06:31:45;46.13;;;37.22;;
38785;SDS011;24535;45.508;12.252;2023-12-20T06:34:11;43.58;;;36.88;;
38785;SDS011;24535;45.508;12.252;2023-12-20T06:36:36;42.83;;;35.78;;
38785;SDS011;24535;45.508;12.252;2023-12-20T06:39:01;46.47;;;36.53;;
38785;SDS011;24535;45.508;12.252;2023-12-20T06:41:27;40.00;;;34.85;;
38785;SDS011;24535;45.508;12.252;2023-12-20T06:43:53;41.17;;;35.28;;
38785;SDS011;24535;45.508;12.252;2023-12-20T06:46:18;40.25;;;35.75;;
38785;SDS011;24535;45.508;12.252;2023-12-20T06:48:44;40.25;;;34.83;;
38785;SDS011;24535;45.508;12.252;2023-12-20T06:51:14;42.67;;;34.63;;
38785;SDS011;24535;45.508;12.252;2023-12-20T06:53:41;40.05;;;32.47;;
38785;SDS011;24535;45.508;12.252;2023-12-20T06:56:06;41.47;;;33.97;;
38785;SDS011;24535;45.508;12.252;2023-12-20T06:58:32;37.78;;;32.15;;
38785;SDS011;24535;45.508;12.252;2023-12-20T07:00:58;44.33;;;34.10;;
38785;SDS011;24535;45.508;12.252;2023-12-20T07:03:28;40.22;;;32.08;;
38785;SDS011;24535;45.508;12.252;2023-12-20T07:05:56;40.30;;;32.17;;
38785;SDS011;24535;45.508;12.252;2023-12-20T07:08:28;34.05;;;28.52;;
38785;SDS011;24535;45.508;12.252;2023-12-20T07:10:53;37.58;;;29.23;;
38785;SDS011;24535;45.508;12.252;2023-12-20T07:13:34;38.95;;;29.77;;
38785;SDS011;24535;45.508;12.252;2023-12-20T07:16:00;39.17;;;29.50;;
38785;SDS011;24535;45.508;12.252;2023-12-20T07:18:25;34.28;;;26.80;;
38785;SDS011;24535;45.508;12.252;2023-12-20T07:20:51;31.33;;;27.10;;
38785;SDS011;24535;45.508;12.252;2023-12-20T07:23:16;37.72;;;28.45;;
38785;SDS011;24535;45.508;12.252;2023-12-20T07:25:41;33.75;;;26.80;;
38785;SDS011;24535;45.508;12.252;2023-12-20T07:28:07;31.33;;;24.67;;
38785;SDS011;24535;45.508;12.252;2023-12-20T07:30:32;33.28;;;27.25;;
38785;SDS011;24535;45.508;12.252;2023-12-20T07:32:58;30.75;;;24.98;;
38785;SDS011;24535;45.508;12.252;2023-12-20T07:35:30;29.38;;;24.80;;
38785;SDS011;24535;45.508;12.252;2023-12-20T07:37:55;33.60;;;24.95;;
38785;SDS011;24535;45.508;12.252;2023-12-20T07:40:21;30.95;;;25.20;;
38785;SDS011;24535;45.508;12.252;2023-12-20T07:42:46;29.30;;;23.33;;
38785;SDS011;24535;45.508;12.252;2023-12-20T07:45:12;30.75;;;25.05;;
38785;SDS011;24535;45.508;12.252;2023-12-20T07:47:37;29.42;;;24.60;;
38785;SDS011;24535;45.508;12.252;2023-12-20T07:50:03;24.60;;;21.65;;
38785;SDS011;24535;45.508;12.252;2023-12-20T07:52:29;32.92;;;23.23;;
38785;SDS011;24535;45.508;12.252;2023-12-20T07:54:55;28.92;;;22.75;;
38785;SDS011;24535;45.508;12.252;2023-12-20T07:57:21;28.52;;;22.85;;
38785;SDS011;24535;45.508;12.252;2023-12-20T07:59:46;25.60;;;21.80;;
38785;SDS011;24535;45.508;12.252;2023-12-20T08:02:12;25.75;;;21.23;;
38785;SDS011;24535;45.508;12.252;2023-12-20T08:04:37;27.23;;;21.38;;
38785;SDS011;24535;45.508;12.252;2023-12-20T08:07:03;25.73;;;20.67;;
38785;SDS011;24535;45.508;12.252;2023-12-20T08:09:29;25.33;;;21.42;;
38785;SDS011;24535;45.508;12.252;2023-12-20T08:11:59;25.83;;;20.30;;
38785;SDS011;24535;45.508;12.252;2023-12-20T08:14:25;24.67;;;20.20;;
38785;SDS011;24535;45.508;12.252;2023-12-20T08:16:56;23.70;;;18.55;;
38785;SDS011;24535;45.508;12.252;2023-12-20T08:19:22;24.50;;;18.85;;
38785;SDS011;24535;45.508;12.252;2023-12-20T08:21:47;24.10;;;18.85;;
38785;SDS011;24535;45.508;12.252;2023-12-20T08:24:13;21.70;;;18.00;;
38785;SDS011;24535;45.508;12.252;2023-12-20T08:26:38;22.98;;;17.73;;
38785;SDS011;24535;45.508;12.252;2023-12-20T08:29:04;23.15;;;17.70;;
38785;SDS011;24535;45.508;12.252;2023-12-20T08:31:29;23.45;;;18.85;;
38785;SDS011;24535;45.508;12.252;2023-12-20T08:33:55;23.10;;;17.70;;
38785;SDS011;24535;45.508;12.252;2023-12-20T08:36:27;19.48;;;16.98;;
38785;SDS011;24535;45.508;12.252;2023-12-20T08:38:53;23.13;;;18.25;;
38785;SDS011;24535;45.508;12.252;2023-12-20T08:41:26;21.33;;;17.17;;
38785;SDS011;24535;45.508;12.252;2023-12-20T08:43:51;22.42;;;17.35;;
38785;SDS011;24535;45.508;12.252;2023-12-20T08:46:17;23.77;;;18.10;;
38785;SDS011;24535;45.508;12.252;2023-12-20T08:48:48;18.77;;;16.75;;
38785;SDS011;24535;45.508;12.252;2023-12-20T08:51:14;23.17;;;18.00;;
38785;SDS011;24535;45.508;12.252;2023-12-20T08:53:39;19.27;;;17.00;;
38785;SDS011;24535;45.508;12.252;2023-12-20T08:59:30;20.25;;;16.38;;
38785;SDS011;24535;45.508;12.252;2023-12-20T09:01:55;21.33;;;15.85;;
38785;SDS011;24535;45.508;12.252;2023-12-20T09:04:21;19.10;;;16.00;;
38785;SDS011;24535;45.508;12.252;2023-12-20T09:06:54;19.48;;;15.68;;
38785;SDS011;24535;45.508;12.252;2023-12-20T09:09:19;23.05;;;16.50;;
38785;SDS011;24535;45.508;12.252;2023-12-20T09:11:45;19.88;;;15.68;;
38785;SDS011;24535;45.508;12.252;2023-12-20T09:14:19;18.70;;;16.10;;
38785;SDS011;24535;45.508;12.252;2023-12-20T09:19:44;18.50;;;15.13;;
38785;SDS011;24535;45.508;12.252;2023-12-20T09:22:10;20.58;;;14.88;;
38785;SDS011;24535;45.508;12.252;2023-12-20T09:24:56;19.67;;;15.85;;
38785;SDS011;24535;45.508;12.252;2023-12-20T09:27:22;17.20;;;15.25;;
38785;SDS011;24535;45.508;12.252;2023-12-20T09:29:47;19.58;;;15.30;;
38785;SDS011;24535;45.508;12.252;2023-12-20T09:32:13;19.10;;;15.23;;
38785;SDS011;24535;45.508;12.252;2023-12-20T09:34:41;20.77;;;15.13;;
38785;SDS011;24535;45.508;12.252;2023-12-20T09:37:07;20.90;;;15.95;;
38785;SDS011;24535;45.508;12.252;2023-12-20T09:39:32;20.48;;;15.07;;
38785;SDS011;24535;45.508;12.252;2023-12-20T10:17:29;17.17;;;13.77;;
38785;SDS011;24535;45.508;12.252;2023-12-20T10:20:03;18.85;;;13.77;;
38785;SDS011;24535;45.508;12.252;2023-12-20T10:22:40;18.35;;;14.00;;
38785;SDS011;24535;45.508;12.252;2023-12-20T10:25:09;18.63;;;13.93;;
38785;SDS011;24535;45.508;12.252;2023-12-20T11:23:05;16.02;;;13.10;;
38785;SDS011;24535;45.508;12.252;2023-12-20T11:25:53;19.20;;;14.15;;
38785;SDS011;24535;45.508;12.252;2023-12-20T11:28:29;16.17;;;13.80;;
38785;SDS011;24535;45.508;12.252;2023-12-20T11:30:55;17.75;;;13.45;;
38785;SDS011;24535;45.508;12.252;2023-12-20T11:33:26;19.17;;;13.52;;
38785;SDS011;24535;45.508;12.252;2023-12-20T11:36:01;16.67;;;14.88;;
38785;SDS011;24535;45.508;12.252;2023-12-20T11:38:37;17.15;;;13.32;;
38785;SDS011;24535;45.508;12.252;2023-12-20T11:41:04;18.92;;;14.20;;
38785;SDS011;24535;45.508;12.252;2023-12-20T11:43:40;21.60;;;14.73;;
38785;SDS011;24535;45.508;12.252;2023-12-20T11:46:06;20.77;;;14.85;;
38785;SDS011;24535;45.508;12.252;2023-12-20T11:48:38;22.42;;;14.30;;
38785;SDS011;24535;45.508;12.252;2023-12-20T11:51:12;29.92;;;14.70;;
38785;SDS011;24535;45.508;12.252;2023-12-20T11:53:41;24.52;;;15.10;;
38785;SDS011;24535;45.508;12.252;2023-12-20T12:04:10;22.00;;;14.70;;
38785;SDS011;24535;45.508;12.252;2023-12-20T12:06:49;22.08;;;14.23;;
38785;SDS011;24535;45.508;12.252;2023-12-20T12:09:15;23.10;;;15.43;;
38785;SDS011;24535;45.508;12.252;2023-12-20T12:11:48;27.05;;;14.35;;
38785;SDS011;24535;45.508;12.252;2023-12-20T12:20:36;25.95;;;17.30;;
38785;SDS011;24535;45.508;12.252;2023-12-20T12:23:05;21.48;;;15.50;;
38785;SDS011;24535;45.508;12.252;2023-12-20T12:25:34;25.80;;;15.27;;
38785;SDS011;24535;45.508;12.252;2023-12-20T12:28:02;28.58;;;16.75;;
38785;SDS011;24535;45.508;12.252;2023-12-20T12:30:57;26.30;;;17.10;;
38785;SDS011;24535;45.508;12.252;2023-12-20T12:33:29;29.50;;;17.65;;
38785;SDS011;24535;45.508;12.252;2023-12-20T12:36:17;22.48;;;15.52;;
38785;SDS011;24535;45.508;12.252;2023-12-20T12:38:45;26.80;;;16.30;;
38785;SDS011;24535;45.508;12.252;2023-12-20T12:41:12;22.63;;;16.58;;
38785;SDS011;24535;45.508;12.252;2023-12-20T12:43:38;25.77;;;17.10;;
38785;SDS011;24535;45.508;12.252;2023-12-20T12:46:12;25.95;;;16.88;;
38785;SDS011;24535;45.508;12.252;2023-12-20T12:48:47;24.92;;;17.02;;
38785;SDS011;24535;45.508;12.252;2023-12-20T12:51:14;27.48;;;16.90;;
38785;SDS011;24535;45.508;12.252;2023-12-20T12:53:42;21.02;;;16.98;;
38785;SDS011;24535;45.508;12.252;2023-12-20T12:56:08;26.83;;;17.42;;
38785;SDS011;24535;45.508;12.252;2023-12-20T12:58:33;20.48;;;15.93;;
38785;SDS011;24535;45.508;12.252;2023-12-20T13:00:59;19.60;;;15.77;;
38785;SDS011;24535;45.508;12.252;2023-12-20T13:03:25;24.83;;;16.58;;
38785;SDS011;24535;45.508;12.252;2023-12-20T13:05:50;23.05;;;16.52;;
38785;SDS011;24535;45.508;12.252;2023-12-20T13:08:15;22.58;;;16.52;;
38785;SDS011;24535;45.508;12.252;2023-12-20T13:10:41;23.83;;;17.00;;
38785;SDS011;24535;45.508;12.252;2023-12-20T13:13:07;22.92;;;16.05;;
38785;SDS011;24535;45.508;12.252;2023-12-20T13:15:32;25.02;;;16.35;;
38785;SDS011;24535;45.508;12.252;2023-12-20T13:17:58;21.10;;;16.38;;
38785;SDS011;24535;45.508;12.252;2023-12-20T13:20:23;24.50;;;16.15;;
38785;SDS011;24535;45.508;12.252;2023-12-20T13:22:49;24.98;;;16.92;;
38785;SDS011;24535;45.508;12.252;2023-12-20T13:27:49;20.38;;;16.05;;
38785;SDS011;24535;45.508;12.252;2023-12-20T13:30:18;26.23;;;16.77;;
38785;SDS011;24535;45.508;12.252;2023-12-20T13:32:46;22.70;;;15.68;;
38785;SDS011;24535;45.508;12.252;2023-12-20T13:35:12;26.17;;;16.23;;
38785;SDS011;24535;45.508;12.252;2023-12-20T13:37:38;23.13;;;16.77;;
38785;SDS011;24535;45.508;12.252;2023-12-20T13:40:04;23.85;;;16.13;;
38785;SDS011;24535;45.508;12.252;2023-12-20T13:42:37;21.98;;;16.60;;
38785;SDS011;24535;45.508;12.252;2023-12-20T13:45:08;21.77;;;17.33;;
38785;SDS011;24535;45.508;12.252;2023-12-20T13:47:34;26.15;;;16.40;;
38785;SDS011;24535;45.508;12.252;2023-12-20T13:50:00;24.58;;;16.02;;
38785;SDS011;24535;45.508;12.252;2023-12-20T13:52:26;22.25;;;16.75;;
38785;SDS011;24535;45.508;12.252;2023-12-20T13:54:51;24.20;;;16.77;;
38785;SDS011;24535;45.508;12.252;2023-12-20T13:57:20;25.30;;;17.52;;
38785;SDS011;24535;45.508;12.252;2023-12-20T14:02:42;23.48;;;17.35;;
38785;SDS011;24535;45.508;12.252;2023-12-20T14:05:11;22.02;;;17.48;;
38785;SDS011;24535;45.508;12.252;2023-12-20T14:07:36;22.63;;;17.55;;
38785;SDS011;24535;45.508;12.252;2023-12-20T14:10:02;20.25;;;17.20;;
38785;SDS011;24535;45.508;12.252;2023-12-20T14:12:31;26.15;;;17.88;;
38785;SDS011;24535;45.508;12.252;2023-12-20T14:17:26;25.33;;;18.02;;
38785;SDS011;24535;45.508;12.252;2023-12-20T14:19:51;25.25;;;17.92;;
38785;SDS011;24535;45.508;12.252;2023-12-20T14:22:17;23.75;;;17.80;;
38785;SDS011;24535;45.508;12.252;2023-12-20T14:24:42;27.20;;;18.65;;
38785;SDS011;24535;45.508;12.252;2023-12-20T14:27:08;23.40;;;18.10;;
38785;SDS011;24535;45.508;12.252;2023-12-20T14:29:34;22.75;;;17.90;;
38785;SDS011;24535;45.508;12.252;2023-12-20T14:32:00;23.77;;;16.60;;
38785;SDS011;24535;45.508;12.252;2023-12-20T14:34:27;23.48;;;16.52;;
38785;SDS011;24535;45.508;12.252;2023-12-20T14:36:56;24.20;;;17.60;;
38785;SDS011;24535;45.508;12.252;2023-12-20T14:39:21;27.98;;;18.70;;
38785;SDS011;24535;45.508;12.252;2023-12-20T14:41:48;25.00;;;19.02;;
38785;SDS011;24535;45.508;12.252;2023-12-20T14:44:13;26.95;;;19.50;;
38785;SDS011;24535;45.508;12.252;2023-12-20T14:46:38;26.85;;;20.17;;
38785;SDS011;24535;45.508;12.252;2023-12-20T14:49:07;26.10;;;18.98;;
38785;SDS011;24535;45.508;12.252;2023-12-20T14:51:32;28.00;;;18.87;;
38785;SDS011;24535;45.508;12.252;2023-12-20T14:53:58;27.13;;;19.25;;
38785;SDS011;24535;45.508;12.252;2023-12-20T14:56:23;28.25;;;19.98;;
38785;SDS011;24535;45.508;12.252;2023-12-20T14:58:51;26.08;;;19.17;;
38785;SDS011;24535;45.508;12.252;2023-12-20T15:01:16;25.10;;;19.70;;
38785;SDS011;24535;45.508;12.252;2023-12-20T15:03:55;25.90;;;19.38;;
38785;SDS011;24535;45.508;12.252;2023-12-20T15:06:21;28.60;;;19.88;;
38785;SDS011;24535;45.508;12.252;2023-12-20T15:08:47;31.70;;;20.30;;
38785;SDS011;24535;45.508;12.252;2023-12-20T15:11:12;27.40;;;19.70;;
38785;SDS011;24535;45.508;12.252;2023-12-20T15:13:39;31.48;;;19.92;;
38785;SDS011;24535;45.508;12.252;2023-12-20T15:16:04;30.48;;;21.58;;
38785;SDS011;24535;45.508;12.252;2023-12-20T15:18:30;30.17;;;20.60;;
38785;SDS011;24535;45.508;12.252;2023-12-20T15:20:57;28.98;;;20.85;;
38785;SDS011;24535;45.508;12.252;2023-12-20T15:23:22;25.10;;;20.10;;
38785;SDS011;24535;45.508;12.252;2023-12-20T15:25:51;28.65;;;21.52;;
38785;SDS011;24535;45.508;12.252;2023-12-20T15:28:17;27.85;;;20.50;;
38785;SDS011;24535;45.508;12.252;2023-12-20T15:30:42;27.70;;;20.50;;
38785;SDS011;24535;45.508;12.252;2023-12-20T15:33:08;29.33;;;21.38;;
38785;SDS011;24535;45.508;12.252;2023-12-20T15:35:34;25.40;;;20.48;;
38785;SDS011;24535;45.508;12.252;2023-12-20T15:37:59;29.33;;;21.95;;
38785;SDS011;24535;45.508;12.252;2023-12-20T15:40:25;27.75;;;21.83;;
38785;SDS011;24535;45.508;12.252;2023-12-20T15:42:50;30.42;;;21.23;;
38785;SDS011;24535;45.508;12.252;2023-12-20T15:45:16;30.33;;;21.75;;
38785;SDS011;24535;45.508;12.252;2023-12-20T15:47:41;30.30;;;21.35;;
38785;SDS011;24535;45.508;12.252;2023-12-20T15:50:07;31.48;;;22.90;;
38785;SDS011;24535;45.508;12.252;2023-12-20T15:52:33;30.33;;;23.30;;
38785;SDS011;24535;45.508;12.252;2023-12-20T15:54:58;31.33;;;23.90;;
38785;SDS011;24535;45.508;12.252;2023-12-20T15:57:24;31.23;;;24.13;;
38785;SDS011;24535;45.508;12.252;2023-12-20T15:59:49;31.67;;;23.67;;
38785;SDS011;24535;45.508;12.252;2023-12-20T16:02:18;36.75;;;24.00;;
38785;SDS011;24535;45.508;12.252;2023-12-20T16:04:43;32.83;;;24.90;;